Algoma Mariner — CFN5517 — position and weather

sailwx.info

Track history (hours):
 
Tides and Currents Weather Stations Pressure Air Temp Water Temp Dewpoint Dewpoint Depression Visibility Wind Speed Wind Dir Waves Ship Positions

Algoma Mariner

Last reported at 2014-Oct-16 16:18 UTC. Time now 2014-Oct-24 12:10 UTC.
Position N 46°30' W 072°14'.

Length 225 m; draft 7.3 m.

Type: Cargo ship. MMSI: 316014050.

Date/timePositionNaut miles runAvg speedWind from/ knotsBaromVisibWave heightAir tempDewpointWater temp
2014-Oct-16 16:18N 46°30' W 072°14'1012.6
2014-Oct-16 15:33N 46°24' W 072°24'1212.3
2014-Oct-16 14:33N 46°16' W 072°38'1413.6
2014-Oct-16 13:30N 46°10' W 072°56'2412.4
2014-Oct-16 11:32N 45°50' W 073°17'0 0.3
2014-Oct-16 10:33N 45°50' W 073°17'0 0.0
2014-Oct-16 09:33N 45°50' W 073°17'0 0.0
2014-Oct-16 08:33N 45°50' W 073°17'0 0.0
2014-Oct-16 07:33N 45°50' W 073°17'0 0.0
2014-Oct-16 06:33N 45°50' W 073°17'0 0.0
2014-Oct-16 05:33N 45°50' W 073°17'0 0.0
2014-Oct-16 04:33N 45°50' W 073°17'0 0.0
2014-Oct-16 03:33N 45°50' W 073°17'0 0.0
2014-Oct-16 02:33N 45°50' W 073°17'0 0.0
2014-Oct-16 01:33N 45°50' W 073°17'3 3.3
2014-Oct-16 00:33N 45°53' W 073°15'10 9.0
2014-Oct-15 23:26N 46°02' W 073°10'18 8.9
2014-Oct-15 21:28N 46°13' W 072°49'9 9.6
2014-Oct-15 20:33N 46°16' W 072°38'8 8.3
2014-Oct-15 19:33N 46°22' W 072°29'8 7.8
2014-Oct-15 18:33N 46°26' W 072°20'8 7.6
2014-Oct-15 17:32N 46°32' W 072°11'  
2014-Oct-13 04:00N 50°12' W 066°18'   240 / 101022.010.8 0.5 6.0 10.0
2014-Oct-10 05:33N 46°25' W 072°23'1110.9
2014-Oct-10 04:33N 46°17' W 072°35'2713.0
2014-Oct-10 02:28N 46°03' W 073°09'1213.7
2014-Oct-10 01:33N 45°52' W 073°16'2 0.6
2014-Oct-09 22:10N 45°50' W 073°17'0 0.0
2014-Oct-09 21:34N 45°50' W 073°17'0 0.0
2014-Oct-09 20:33N 45°50' W 073°17'0 0.0
2014-Oct-09 19:34N 45°50' W 073°17'0 0.0
2014-Oct-09 10:33N 45°50' W 073°17'0 0.0
2014-Oct-09 09:34N 45°50' W 073°17'0 0.3
2014-Oct-09 08:33N 45°50' W 073°17'7 6.5
2014-Oct-09 07:33N 45°56' W 073°13'29 9.1
2014-Oct-09 04:21N 46°16' W 072°42'6 7.8
2014-Oct-09 03:33N 46°18' W 072°34'9 8.6
2014-Oct-09 02:33N 46°24' W 072°24'9 9.1
2014-Oct-09 01:33N 46°30' W 072°14'  
Track history (hours):
 
Tides and Currents Weather Stations Pressure Air Temp Water Temp Dewpoint Dewpoint Depression Visibility Wind Speed Wind Dir Waves Ship Positions

Algoma Mariner

Last reported at 2014-Oct-16 16:18 UTC. Time now 2014-Oct-24 12:10 UTC.
Position N 46°30' W 072°14'.

Length 225 m; draft 7.3 m.

Type: Cargo ship. MMSI: 316014050.

Date/timePositionNaut miles runAvg speedWind from/ knotsBaromVisibWave heightAir tempDewpointWater temp
2014-Oct-16 16:18N 46°30' W 072°14'1012.6
2014-Oct-16 15:33N 46°24' W 072°24'1212.3
2014-Oct-16 14:33N 46°16' W 072°38'1413.6
2014-Oct-16 13:30N 46°10' W 072°56'2412.4
2014-Oct-16 11:32N 45°50' W 073°17'0 0.3
2014-Oct-16 10:33N 45°50' W 073°17'0 0.0
2014-Oct-16 09:33N 45°50' W 073°17'0 0.0
2014-Oct-16 08:33N 45°50' W 073°17'0 0.0
2014-Oct-16 07:33N 45°50' W 073°17'0 0.0
2014-Oct-16 06:33N 45°50' W 073°17'0 0.0
2014-Oct-16 05:33N 45°50' W 073°17'0 0.0
2014-Oct-16 04:33N 45°50' W 073°17'0 0.0
2014-Oct-16 03:33N 45°50' W 073°17'0 0.0
2014-Oct-16 02:33N 45°50' W 073°17'0 0.0
2014-Oct-16 01:33N 45°50' W 073°17'3 3.3
2014-Oct-16 00:33N 45°53' W 073°15'10 9.0
2014-Oct-15 23:26N 46°02' W 073°10'18 8.9
2014-Oct-15 21:28N 46°13' W 072°49'9 9.6
2014-Oct-15 20:33N 46°16' W 072°38'8 8.3
2014-Oct-15 19:33N 46°22' W 072°29'8 7.8
2014-Oct-15 18:33N 46°26' W 072°20'8 7.6
2014-Oct-15 17:32N 46°32' W 072°11'  
2014-Oct-13 04:00N 50°12' W 066°18'   240 / 101022.010.8 0.5 6.0 10.0
2014-Oct-10 05:33N 46°25' W 072°23'1110.9
2014-Oct-10 04:33N 46°17' W 072°35'2713.0
2014-Oct-10 02:28N 46°03' W 073°09'1213.7
2014-Oct-10 01:33N 45°52' W 073°16'2 0.6
2014-Oct-09 22:10N 45°50' W 073°17'0 0.0
2014-Oct-09 21:34N 45°50' W 073°17'0 0.0
2014-Oct-09 20:33N 45°50' W 073°17'0 0.0
2014-Oct-09 19:34N 45°50' W 073°17'0 0.0
2014-Oct-09 10:33N 45°50' W 073°17'0 0.0
2014-Oct-09 09:34N 45°50' W 073°17'0 0.3
2014-Oct-09 08:33N 45°50' W 073°17'7 6.5
2014-Oct-09 07:33N 45°56' W 073°13'29 9.1
2014-Oct-09 04:21N 46°16' W 072°42'6 7.8
2014-Oct-09 03:33N 46°18' W 072°34'9 8.6
2014-Oct-09 02:33N 46°24' W 072°24'9 9.1
2014-Oct-09 01:33N 46°30' W 072°14'  

Dump ship's entire track history